Aeroporto :
LOGIN :

Iscrizione | Disclaimer

   EN    FR    IT 

 










Sommario :    VFR   VFR Marginale   IFR   IFR Intensivo   IFR Molto Intensivo
Visibilità : 
Base nubi : 
>= 8 km
>= 3000ft
5 / 8 km
1000 / 3000 ft
1500m / 5 km
500 / 1000 ft
800 / 1500m
200 / 500 ft
< 800m
< 200 ft
Simboli :   Temporali  Nebbia  Neve Forte  Precipitazioni Forti  Vento > 20 kt
SIGMETs :   Varie  Temporali  Ghiacco  Turbolenza  Onda orograficha  Ceneri Vulcaniche






- Altitudine del aeroporto : 273 ft


EGXT - RAF Wittering Stamford

ULTIMO METAR :
  • 101454Z 19026G36KT 9999 BKN010 BKN015 10/08 Q1002 RMK GRN

METARs OBSOLETI :
  • 101350Z 19027G38KT 9999 BKN009 OVC017 10/08 Q1003 RMK GRN
  • 101320Z 19027G38KT 9999 FEW007 BKN009 OVC015 09/08 Q1004 RMK GRN
  • 101250Z 19025G35KT 8000 -SHRA BKN010 BKN018 OVC021 09/08 Q1006 RMK GRN

TAF TAF EGXT
Valido dal 10 a 15 ore il 10 a 18 ore UTC


101354Z 1015/1018 20027G40KT 9999 BKN012
PROB30
TEMPO 1015/1018 5000 -RADZ SCT006 BKN008



MetMap, La meteo Aeronautica in un colpo d'occhio ! - Copyright ORBIFLY Dicembre 2007 - Disclaimer

ORBIFLY MET'MAP TEAM :

Programmazione e sviluppo : Alexandra Zaïnal
Concezione : Baudouin d'Aumeries
Aiuto per la programmazione : Marc-Olivier Méhu
Supporto tecnico e logistico : Manuel Goepfert
Aiuto per la traduzione : Arnaldo La Scala

Contatto : metmap@orbifly.com




FONTI E CREDITI :

   NOAA